Pagrindinis puslapis
METAR-TAF:

METAR-TAF

Oro uostai :

Tatalina, Aliaska, Jungtinės Amerikos Valstijos

platuma: 62-54N, ilguma: 155-59W, Aukštis: 294 m

Dabartinis oras

Ataskaita buvo paskelbta 35 minutes, ne 05:11 UTC
Vėjas 5 kt nuo kintamojo kryptimis
Temperatūra 3°C
Drėgmė 93%
Slėgis 995 hPa
Matomumas: 16.1 km
Apsiniaukę ne aukštis 4500 ft
lietus

METAR: PATL 210511Z AUTO VRB05KT 10SM -RA OVC045 03/02 A2938 RMK AO2 SLP958

Laikas: 21:46 (05:46 UTC)


TAF: trūkstamas

Orai ataskaitas ir orų prognozės (METAR, TAF).

turimą stotys yra geltonos ir raudonos taškus žemėlapyje.

Perkelti pele per norėdami pamatyti stoties vardą.

Tada spustelėkite, norėdami matyti oro stebėjimo ir prognozės.

Norėdami pakeisti žemėlapį: spustelėkite ant žalios mygtukų su juodo kryžiaus žemyn,; žalią mygtuką su brūkšneliu, jei norite nutolinti; arba žalių rodyklių gretimoms žemėlapius.


METAR-TAF: